sensor_id;sensor_type;location;lat;lon;timestamp;P1;durP1;ratioP1;P2;durP2;ratioP2
76566;SDS011;65428;53.194;6.132;2022-12-05T00:01:29;30.93;;;23.87;;
76566;SDS011;65428;53.194;6.132;2022-12-05T00:04:00;31.05;;;23.00;;
76566;SDS011;65428;53.194;6.132;2022-12-05T00:06:28;30.67;;;22.63;;
76566;SDS011;65428;53.194;6.132;2022-12-05T00:08:55;29.15;;;23.25;;
76566;SDS011;65428;53.194;6.132;2022-12-05T00:11:23;29.73;;;22.10;;
76566;SDS011;65428;53.194;6.132;2022-12-05T00:13:51;29.27;;;21.88;;
76566;SDS011;65428;53.194;6.132;2022-12-05T00:16:18;31.90;;;22.52;;
76566;SDS011;65428;53.194;6.132;2022-12-05T00:18:47;32.35;;;23.52;;
76566;SDS011;65428;53.194;6.132;2022-12-05T00:21:17;28.80;;;22.85;;
76566;SDS011;65428;53.194;6.132;2022-12-05T00:23:44;29.73;;;22.92;;
76566;SDS011;65428;53.194;6.132;2022-12-05T00:26:10;29.73;;;22.63;;
76566;SDS011;65428;53.194;6.132;2022-12-05T00:28:36;31.10;;;22.50;;
76566;SDS011;65428;53.194;6.132;2022-12-05T00:31:06;28.13;;;22.83;;
76566;SDS011;65428;53.194;6.132;2022-12-05T00:33:33;28.70;;;22.27;;
76566;SDS011;65428;53.194;6.132;2022-12-05T00:36:00;29.13;;;21.80;;
76566;SDS011;65428;53.194;6.132;2022-12-05T00:38:31;29.20;;;21.73;;
76566;SDS011;65428;53.194;6.132;2022-12-05T00:41:01;27.50;;;22.20;;
76566;SDS011;65428;53.194;6.132;2022-12-05T00:43:31;27.88;;;21.63;;
76566;SDS011;65428;53.194;6.132;2022-12-05T00:46:03;30.80;;;22.95;;
76566;SDS011;65428;53.194;6.132;2022-12-05T00:48:31;29.67;;;22.55;;
76566;SDS011;65428;53.194;6.132;2022-12-05T00:51:04;28.52;;;22.10;;
76566;SDS011;65428;53.194;6.132;2022-12-05T00:53:33;29.43;;;23.50;;
76566;SDS011;65428;53.194;6.132;2022-12-05T00:56:12;31.60;;;24.58;;
76566;SDS011;65428;53.194;6.132;2022-12-05T00:58:39;30.63;;;23.65;;
76566;SDS011;65428;53.194;6.132;2022-12-05T01:01:12;33.15;;;24.83;;
76566;SDS011;65428;53.194;6.132;2022-12-05T01:03:57;32.53;;;24.80;;
76566;SDS011;65428;53.194;6.132;2022-12-05T01:06:25;32.47;;;24.73;;
76566;SDS011;65428;53.194;6.132;2022-12-05T01:08:52;33.43;;;25.67;;
76566;SDS011;65428;53.194;6.132;2022-12-05T01:11:20;34.70;;;26.15;;
76566;SDS011;65428;53.194;6.132;2022-12-05T01:13:47;34.42;;;25.55;;
76566;SDS011;65428;53.194;6.132;2022-12-05T01:16:21;35.58;;;26.05;;
76566;SDS011;65428;53.194;6.132;2022-12-05T01:18:48;34.13;;;25.63;;
76566;SDS011;65428;53.194;6.132;2022-12-05T01:21:14;33.50;;;25.53;;
76566;SDS011;65428;53.194;6.132;2022-12-05T01:23:40;32.20;;;25.47;;
76566;SDS011;65428;53.194;6.132;2022-12-05T01:26:06;34.00;;;25.25;;
76566;SDS011;65428;53.194;6.132;2022-12-05T01:28:34;34.92;;;25.55;;
76566;SDS011;65428;53.194;6.132;2022-12-05T01:31:03;31.23;;;24.35;;
76566;SDS011;65428;53.194;6.132;2022-12-05T01:33:31;30.83;;;23.75;;
76566;SDS011;65428;53.194;6.132;2022-12-05T01:35:57;31.17;;;23.42;;
76566;SDS011;65428;53.194;6.132;2022-12-05T01:38:22;29.60;;;23.45;;
76566;SDS011;65428;53.194;6.132;2022-12-05T01:40:48;30.15;;;23.02;;
76566;SDS011;65428;53.194;6.132;2022-12-05T01:43:14;29.87;;;23.10;;
76566;SDS011;65428;53.194;6.132;2022-12-05T01:45:42;28.80;;;22.20;;
76566;SDS011;65428;53.194;6.132;2022-12-05T01:48:14;28.88;;;21.67;;
76566;SDS011;65428;53.194;6.132;2022-12-05T01:50:58;28.17;;;22.23;;
76566;SDS011;65428;53.194;6.132;2022-12-05T01:53:24;28.63;;;21.15;;
76566;SDS011;65428;53.194;6.132;2022-12-05T01:55:51;27.80;;;20.73;;
76566;SDS011;65428;53.194;6.132;2022-12-05T01:58:18;28.17;;;21.50;;
76566;SDS011;65428;53.194;6.132;2022-12-05T02:00:45;26.15;;;19.95;;
76566;SDS011;65428;53.194;6.132;2022-12-05T02:03:16;26.00;;;20.58;;
76566;SDS011;65428;53.194;6.132;2022-12-05T02:05:45;26.40;;;19.92;;
76566;SDS011;65428;53.194;6.132;2022-12-05T02:08:14;25.33;;;19.27;;
76566;SDS011;65428;53.194;6.132;2022-12-05T02:10:44;22.47;;;18.10;;
76566;SDS011;65428;53.194;6.132;2022-12-05T02:24:41;19.83;;;15.43;;
76566;SDS011;65428;53.194;6.132;2022-12-05T02:27:50;17.45;;;14.43;;
76566;SDS011;65428;53.194;6.132;2022-12-05T02:30:23;18.67;;;15.07;;
76566;SDS011;65428;53.194;6.132;2022-12-05T02:43:58;14.45;;;11.80;;
76566;SDS011;65428;53.194;6.132;2022-12-05T02:46:28;15.40;;;11.88;;
76566;SDS011;65428;53.194;6.132;2022-12-05T02:49:00;14.27;;;11.35;;
76566;SDS011;65428;53.194;6.132;2022-12-05T02:51:34;13.03;;;10.63;;
76566;SDS011;65428;53.194;6.132;2022-12-05T02:54:06;12.33;;;10.43;;
76566;SDS011;65428;53.194;6.132;2022-12-05T02:56:35;11.77;;;10.47;;
76566;SDS011;65428;53.194;6.132;2022-12-05T02:59:02;12.18;;;10.30;;
76566;SDS011;65428;53.194;6.132;2022-12-05T03:01:29;13.52;;;10.60;;
76566;SDS011;65428;53.194;6.132;2022-12-05T03:03:55;11.43;;;9.50;;
76566;SDS011;65428;53.194;6.132;2022-12-05T03:06:27;12.15;;;10.05;;
76566;SDS011;65428;53.194;6.132;2022-12-05T03:11:37;11.82;;;9.88;;
76566;SDS011;65428;53.194;6.132;2022-12-05T03:14:17;12.20;;;10.13;;
76566;SDS011;65428;53.194;6.132;2022-12-05T03:16:49;11.80;;;10.30;;
76566;SDS011;65428;53.194;6.132;2022-12-05T03:19:25;12.55;;;10.40;;
76566;SDS011;65428;53.194;6.132;2022-12-05T03:22:06;13.77;;;10.38;;
76566;SDS011;65428;53.194;6.132;2022-12-05T03:24:35;12.02;;;10.20;;
76566;SDS011;65428;53.194;6.132;2022-12-05T03:30:01;11.00;;;9.88;;
76566;SDS011;65428;53.194;6.132;2022-12-05T03:32:38;11.63;;;9.50;;
76566;SDS011;65428;53.194;6.132;2022-12-05T03:40:31;12.55;;;9.75;;
76566;SDS011;65428;53.194;6.132;2022-12-05T03:48:37;14.57;;;10.13;;
76566;SDS011;65428;53.194;6.132;2022-12-05T03:51:24;12.23;;;10.00;;
76566;SDS011;65428;53.194;6.132;2022-12-05T03:53:57;13.00;;;10.32;;
76566;SDS011;65428;53.194;6.132;2022-12-05T03:56:44;13.85;;;9.77;;
76566;SDS011;65428;53.194;6.132;2022-12-05T04:01:47;13.48;;;9.50;;
76566;SDS011;65428;53.194;6.132;2022-12-05T04:04:17;14.38;;;10.57;;
76566;SDS011;65428;53.194;6.132;2022-12-05T04:06:50;12.95;;;10.27;;
76566;SDS011;65428;53.194;6.132;2022-12-05T04:09:30;15.18;;;11.00;;
76566;SDS011;65428;53.194;6.132;2022-12-05T04:12:21;16.67;;;11.50;;
76566;SDS011;65428;53.194;6.132;2022-12-05T04:14:52;15.55;;;11.13;;
76566;SDS011;65428;53.194;6.132;2022-12-05T04:17:28;17.30;;;11.18;;
76566;SDS011;65428;53.194;6.132;2022-12-05T04:20:10;15.93;;;11.52;;
76566;SDS011;65428;53.194;6.132;2022-12-05T04:22:57;14.70;;;11.48;;
76566;SDS011;65428;53.194;6.132;2022-12-05T04:25:23;19.10;;;11.88;;
76566;SDS011;65428;53.194;6.132;2022-12-05T04:30:47;15.65;;;11.85;;
76566;SDS011;65428;53.194;6.132;2022-12-05T04:33:30;16.73;;;12.18;;
76566;SDS011;65428;53.194;6.132;2022-12-05T04:36:06;16.77;;;12.67;;
76566;SDS011;65428;53.194;6.132;2022-12-05T04:38:46;19.20;;;12.80;;
76566;SDS011;65428;53.194;6.132;2022-12-05T04:41:22;16.67;;;12.68;;
76566;SDS011;65428;53.194;6.132;2022-12-05T04:43:54;18.88;;;12.95;;
76566;SDS011;65428;53.194;6.132;2022-12-05T04:46:23;18.55;;;13.40;;
76566;SDS011;65428;53.194;6.132;2022-12-05T04:48:51;18.35;;;13.90;;
76566;SDS011;65428;53.194;6.132;2022-12-05T04:51:21;17.63;;;13.57;;
76566;SDS011;65428;53.194;6.132;2022-12-05T04:53:51;19.80;;;13.77;;
76566;SDS011;65428;53.194;6.132;2022-12-05T04:56:20;20.63;;;14.35;;
76566;SDS011;65428;53.194;6.132;2022-12-05T04:58:51;17.85;;;13.32;;
76566;SDS011;65428;53.194;6.132;2022-12-05T05:01:18;20.98;;;13.98;;
76566;SDS011;65428;53.194;6.132;2022-12-05T05:06:26;18.85;;;13.52;;
76566;SDS011;65428;53.194;6.132;2022-12-05T05:08:53;17.55;;;13.13;;
76566;SDS011;65428;53.194;6.132;2022-12-05T05:11:21;19.40;;;12.87;;
76566;SDS011;65428;53.194;6.132;2022-12-05T05:13:51;18.60;;;13.10;;
76566;SDS011;65428;53.194;6.132;2022-12-05T05:16:18;17.70;;;12.77;;
76566;SDS011;65428;53.194;6.132;2022-12-05T05:18:56;19.23;;;13.43;;
76566;SDS011;65428;53.194;6.132;2022-12-05T05:23:49;17.70;;;12.85;;
76566;SDS011;65428;53.194;6.132;2022-12-05T05:26:15;20.77;;;13.05;;
76566;SDS011;65428;53.194;6.132;2022-12-05T05:28:41;18.75;;;12.90;;
76566;SDS011;65428;53.194;6.132;2022-12-05T05:31:07;18.35;;;12.95;;
76566;SDS011;65428;53.194;6.132;2022-12-05T05:33:33;18.93;;;12.73;;
76566;SDS011;65428;53.194;6.132;2022-12-05T05:36:03;18.05;;;13.40;;
76566;SDS011;65428;53.194;6.132;2022-12-05T05:38:29;18.42;;;12.77;;
76566;SDS011;65428;53.194;6.132;2022-12-05T05:40:54;18.27;;;12.70;;
76566;SDS011;65428;53.194;6.132;2022-12-05T05:43:20;20.48;;;13.73;;
76566;SDS011;65428;53.194;6.132;2022-12-05T05:45:46;20.77;;;13.40;;
76566;SDS011;65428;53.194;6.132;2022-12-05T05:48:11;21.40;;;13.95;;
76566;SDS011;65428;53.194;6.132;2022-12-05T05:50:37;18.17;;;13.60;;
76566;SDS011;65428;53.194;6.132;2022-12-05T05:53:02;19.75;;;13.85;;
76566;SDS011;65428;53.194;6.132;2022-12-05T05:55:28;20.63;;;14.03;;
76566;SDS011;65428;53.194;6.132;2022-12-05T05:57:53;20.37;;;13.43;;
76566;SDS011;65428;53.194;6.132;2022-12-05T06:00:19;21.70;;;13.70;;
76566;SDS011;65428;53.194;6.132;2022-12-05T06:02:45;17.17;;;12.77;;
76566;SDS011;65428;53.194;6.132;2022-12-05T06:05:10;17.63;;;12.88;;
76566;SDS011;65428;53.194;6.132;2022-12-05T06:07:36;18.75;;;13.02;;
76566;SDS011;65428;53.194;6.132;2022-12-05T06:10:02;17.23;;;13.10;;
76566;SDS011;65428;53.194;6.132;2022-12-05T06:12:28;19.65;;;13.35;;
76566;SDS011;65428;53.194;6.132;2022-12-05T06:14:54;18.63;;;12.82;;
76566;SDS011;65428;53.194;6.132;2022-12-05T06:17:20;18.77;;;12.80;;
76566;SDS011;65428;53.194;6.132;2022-12-05T06:19:45;20.88;;;13.18;;
76566;SDS011;65428;53.194;6.132;2022-12-05T06:22:11;18.10;;;12.50;;
76566;SDS011;65428;53.194;6.132;2022-12-05T06:24:37;18.15;;;11.88;;
76566;SDS011;65428;53.194;6.132;2022-12-05T06:27:03;17.42;;;12.38;;
76566;SDS011;65428;53.194;6.132;2022-12-05T06:29:28;17.08;;;11.85;;
76566;SDS011;65428;53.194;6.132;2022-12-05T06:31:54;16.83;;;12.18;;
76566;SDS011;65428;53.194;6.132;2022-12-05T06:34:20;18.03;;;12.23;;
76566;SDS011;65428;53.194;6.132;2022-12-05T06:36:45;17.65;;;12.20;;
76566;SDS011;65428;53.194;6.132;2022-12-05T06:39:11;17.23;;;12.10;;
76566;SDS011;65428;53.194;6.132;2022-12-05T06:41:36;17.20;;;11.60;;
76566;SDS011;65428;53.194;6.132;2022-12-05T06:44:02;16.95;;;11.45;;
76566;SDS011;65428;53.194;6.132;2022-12-05T06:46:28;17.33;;;11.77;;
76566;SDS011;65428;53.194;6.132;2022-12-05T06:48:55;17.50;;;11.38;;
76566;SDS011;65428;53.194;6.132;2022-12-05T06:51:21;17.15;;;11.73;;
76566;SDS011;65428;53.194;6.132;2022-12-05T06:53:48;16.80;;;11.27;;
76566;SDS011;65428;53.194;6.132;2022-12-05T06:56:15;15.63;;;10.90;;
76566;SDS011;65428;53.194;6.132;2022-12-05T06:58:43;17.80;;;10.60;;
76566;SDS011;65428;53.194;6.132;2022-12-05T07:01:11;17.00;;;11.35;;
76566;SDS011;65428;53.194;6.132;2022-12-05T07:03:59;16.67;;;10.95;;
76566;SDS011;65428;53.194;6.132;2022-12-05T07:06:25;15.82;;;11.68;;
76566;SDS011;65428;53.194;6.132;2022-12-05T07:08:51;17.93;;;11.37;;
76566;SDS011;65428;53.194;6.132;2022-12-05T07:11:17;19.07;;;11.37;;
76566;SDS011;65428;53.194;6.132;2022-12-05T07:13:43;18.73;;;11.10;;
76566;SDS011;65428;53.194;6.132;2022-12-05T07:16:09;18.70;;;11.50;;
76566;SDS011;65428;53.194;6.132;2022-12-05T07:18:35;16.65;;;11.45;;
76566;SDS011;65428;53.194;6.132;2022-12-05T07:21:04;18.13;;;11.88;;
76566;SDS011;65428;53.194;6.132;2022-12-05T07:23:32;20.73;;;11.98;;
76566;SDS011;65428;53.194;6.132;2022-12-05T07:25:58;17.13;;;10.93;;
76566;SDS011;65428;53.194;6.132;2022-12-05T07:28:28;16.25;;;10.70;;
76566;SDS011;65428;53.194;6.132;2022-12-05T07:31:04;19.10;;;11.27;;
76566;SDS011;65428;53.194;6.132;2022-12-05T07:33:31;17.10;;;11.32;;
76566;SDS011;65428;53.194;6.132;2022-12-05T07:35:57;17.25;;;9.93;;
76566;SDS011;65428;53.194;6.132;2022-12-05T07:38:28;16.75;;;9.45;;
76566;SDS011;65428;53.194;6.132;2022-12-05T07:40:54;17.25;;;9.63;;
76566;SDS011;65428;53.194;6.132;2022-12-05T07:43:20;15.35;;;9.18;;
76566;SDS011;65428;53.194;6.132;2022-12-05T07:45:45;14.90;;;8.45;;
76566;SDS011;65428;53.194;6.132;2022-12-05T07:48:11;15.37;;;8.80;;
76566;SDS011;65428;53.194;6.132;2022-12-05T07:50:36;15.13;;;8.10;;
76566;SDS011;65428;53.194;6.132;2022-12-05T07:53:02;15.93;;;8.37;;
76566;SDS011;65428;53.194;6.132;2022-12-05T07:55:28;16.00;;;8.35;;
76566;SDS011;65428;53.194;6.132;2022-12-05T07:57:53;14.73;;;8.32;;
76566;SDS011;65428;53.194;6.132;2022-12-05T08:00:19;15.70;;;7.80;;
76566;SDS011;65428;53.194;6.132;2022-12-05T08:02:45;14.35;;;7.78;;
76566;SDS011;65428;53.194;6.132;2022-12-05T08:05:11;15.73;;;8.15;;
76566;SDS011;65428;53.194;6.132;2022-12-05T08:07:37;19.93;;;8.40;;
76566;SDS011;65428;53.194;6.132;2022-12-05T08:10:02;14.35;;;7.70;;
76566;SDS011;65428;53.194;6.132;2022-12-05T08:12:29;14.55;;;8.15;;
76566;SDS011;65428;53.194;6.132;2022-12-05T08:14:54;15.60;;;8.23;;
76566;SDS011;65428;53.194;6.132;2022-12-05T08:17:20;17.60;;;7.67;;
76566;SDS011;65428;53.194;6.132;2022-12-05T08:19:45;14.90;;;8.20;;
76566;SDS011;65428;53.194;6.132;2022-12-05T08:22:11;16.40;;;8.10;;
76566;SDS011;65428;53.194;6.132;2022-12-05T08:24:37;16.53;;;9.00;;
76566;SDS011;65428;53.194;6.132;2022-12-05T08:27:03;15.20;;;8.38;;
76566;SDS011;65428;53.194;6.132;2022-12-05T08:29:29;17.42;;;9.02;;
76566;SDS011;65428;53.194;6.132;2022-12-05T08:31:55;16.03;;;9.00;;
76566;SDS011;65428;53.194;6.132;2022-12-05T08:34:21;16.10;;;8.87;;
76566;SDS011;65428;53.194;6.132;2022-12-05T08:36:47;14.90;;;9.00;;
76566;SDS011;65428;53.194;6.132;2022-12-05T08:39:14;19.92;;;9.63;;
76566;SDS011;65428;53.194;6.132;2022-12-05T08:41:44;17.42;;;9.32;;
76566;SDS011;65428;53.194;6.132;2022-12-05T08:44:11;16.75;;;8.90;;
76566;SDS011;65428;53.194;6.132;2022-12-05T08:46:40;18.45;;;9.45;;
76566;SDS011;65428;53.194;6.132;2022-12-05T08:49:07;16.38;;;9.30;;
76566;SDS011;65428;53.194;6.132;2022-12-05T08:51:35;14.38;;;8.98;;
76566;SDS011;65428;53.194;6.132;2022-12-05T08:54:02;18.33;;;10.05;;
76566;SDS011;65428;53.194;6.132;2022-12-05T08:56:29;18.35;;;10.88;;
76566;SDS011;65428;53.194;6.132;2022-12-05T08:58:56;15.70;;;9.20;;
76566;SDS011;65428;53.194;6.132;2022-12-05T09:01:23;16.48;;;9.10;;
76566;SDS011;65428;53.194;6.132;2022-12-05T09:03:54;15.07;;;9.15;;
76566;SDS011;65428;53.194;6.132;2022-12-05T09:06:20;14.43;;;9.05;;
76566;SDS011;65428;53.194;6.132;2022-12-05T09:08:48;18.97;;;9.17;;
76566;SDS011;65428;53.194;6.132;2022-12-05T09:11:18;17.00;;;9.85;;
76566;SDS011;65428;53.194;6.132;2022-12-05T09:13:48;20.25;;;10.07;;
76566;SDS011;65428;53.194;6.132;2022-12-05T09:16:15;15.40;;;9.35;;
76566;SDS011;65428;53.194;6.132;2022-12-05T09:18:43;18.92;;;10.25;;
76566;SDS011;65428;53.194;6.132;2022-12-05T09:21:11;16.42;;;10.45;;
76566;SDS011;65428;53.194;6.132;2022-12-05T09:23:38;17.05;;;9.93;;
76566;SDS011;65428;53.194;6.132;2022-12-05T09:26:05;19.23;;;10.00;;
76566;SDS011;65428;53.194;6.132;2022-12-05T09:28:32;17.98;;;10.35;;
76566;SDS011;65428;53.194;6.132;2022-12-05T09:31:00;19.73;;;10.85;;
76566;SDS011;65428;53.194;6.132;2022-12-05T09:33:28;17.77;;;10.25;;
76566;SDS011;65428;53.194;6.132;2022-12-05T09:35:55;16.77;;;10.13;;
76566;SDS011;65428;53.194;6.132;2022-12-05T09:38:21;14.82;;;9.60;;
76566;SDS011;65428;53.194;6.132;2022-12-05T09:40:52;16.25;;;10.07;;
76566;SDS011;65428;53.194;6.132;2022-12-05T09:43:30;19.20;;;10.88;;
76566;SDS011;65428;53.194;6.132;2022-12-05T09:46:42;18.63;;;10.40;;
76566;SDS011;65428;53.194;6.132;2022-12-05T09:49:16;17.23;;;9.43;;
76566;SDS011;65428;53.194;6.132;2022-12-05T09:51:43;16.02;;;9.40;;
76566;SDS011;65428;53.194;6.132;2022-12-05T09:54:10;18.08;;;10.43;;
76566;SDS011;65428;53.194;6.132;2022-12-05T09:56:37;16.15;;;10.23;;
76566;SDS011;65428;53.194;6.132;2022-12-05T09:59:04;17.73;;;10.60;;
76566;SDS011;65428;53.194;6.132;2022-12-05T10:17:40;20.98;;;11.25;;
76566;SDS011;65428;53.194;6.132;2022-12-05T10:20:10;16.77;;;10.10;;
76566;SDS011;65428;53.194;6.132;2022-12-05T10:22:45;18.55;;;10.40;;
76566;SDS011;65428;53.194;6.132;2022-12-05T10:25:19;18.73;;;9.88;;
76566;SDS011;65428;53.194;6.132;2022-12-05T10:27:50;19.23;;;10.20;;
76566;SDS011;65428;53.194;6.132;2022-12-05T10:30:26;19.63;;;10.07;;
76566;SDS011;65428;53.194;6.132;2022-12-05T10:35:22;19.38;;;9.27;;
76566;SDS011;65428;53.194;6.132;2022-12-05T10:38:03;18.65;;;9.85;;
76566;SDS011;65428;53.194;6.132;2022-12-05T10:40:35;16.67;;;9.90;;
76566;SDS011;65428;53.194;6.132;2022-12-05T10:43:07;16.73;;;9.10;;
76566;SDS011;65428;53.194;6.132;2022-12-05T10:45:45;16.57;;;9.53;;
76566;SDS011;65428;53.194;6.132;2022-12-05T10:48:12;17.33;;;9.57;;
76566;SDS011;65428;53.194;6.132;2022-12-05T10:50:40;22.15;;;10.30;;
76566;SDS011;65428;53.194;6.132;2022-12-05T10:53:10;18.65;;;10.65;;
76566;SDS011;65428;53.194;6.132;2022-12-05T10:55:40;20.40;;;10.40;;
76566;SDS011;65428;53.194;6.132;2022-12-05T10:58:15;19.13;;;10.30;;
76566;SDS011;65428;53.194;6.132;2022-12-05T11:00:52;18.25;;;10.00;;
76566;SDS011;65428;53.194;6.132;2022-12-05T11:03:30;16.98;;;9.90;;
76566;SDS011;65428;53.194;6.132;2022-12-05T11:05:59;17.87;;;10.60;;
76566;SDS011;65428;53.194;6.132;2022-12-05T11:08:28;22.58;;;10.70;;
76566;SDS011;65428;53.194;6.132;2022-12-05T11:11:06;18.58;;;10.95;;
76566;SDS011;65428;53.194;6.132;2022-12-05T11:13:50;18.05;;;10.82;;
76566;SDS011;65428;53.194;6.132;2022-12-05T11:16:26;16.92;;;10.35;;
76566;SDS011;65428;53.194;6.132;2022-12-05T11:18:54;19.13;;;10.57;;
76566;SDS011;65428;53.194;6.132;2022-12-05T11:21:20;17.97;;;11.07;;
76566;SDS011;65428;53.194;6.132;2022-12-05T11:23:47;22.77;;;11.33;;
76566;SDS011;65428;53.194;6.132;2022-12-05T11:28:56;22.40;;;12.75;;
76566;SDS011;65428;53.194;6.132;2022-12-05T11:31:25;21.70;;;12.25;;
76566;SDS011;65428;53.194;6.132;2022-12-05T11:36:45;21.52;;;12.77;;
76566;SDS011;65428;53.194;6.132;2022-12-05T11:39:16;24.03;;;12.83;;
76566;SDS011;65428;53.194;6.132;2022-12-05T11:41:49;25.53;;;12.50;;
76566;SDS011;65428;53.194;6.132;2022-12-05T11:44:59;21.88;;;12.02;;
76566;SDS011;65428;53.194;6.132;2022-12-05T11:47:43;24.25;;;12.27;;
76566;SDS011;65428;53.194;6.132;2022-12-05T11:58:41;19.83;;;11.23;;
76566;SDS011;65428;53.194;6.132;2022-12-05T12:01:23;18.08;;;10.48;;
76566;SDS011;65428;53.194;6.132;2022-12-05T12:21:04;17.50;;;9.05;;
76566;SDS011;65428;53.194;6.132;2022-12-05T12:23:55;20.70;;;9.80;;
76566;SDS011;65428;53.194;6.132;2022-12-05T12:26:47;17.85;;;9.25;;
76566;SDS011;65428;53.194;6.132;2022-12-05T12:32:38;17.42;;;8.98;;
76566;SDS011;65428;53.194;6.132;2022-12-05T12:40:54;13.02;;;7.32;;
76566;SDS011;65428;53.194;6.132;2022-12-05T12:51:52;10.40;;;5.32;;
76566;SDS011;65428;53.194;6.132;2022-12-05T13:00:00;12.25;;;5.90;;
76566;SDS011;65428;53.194;6.132;2022-12-05T13:02:45;10.88;;;5.55;;
76566;SDS011;65428;53.194;6.132;2022-12-05T13:05:33;10.15;;;6.03;;
76566;SDS011;65428;53.194;6.132;2022-12-05T13:08:06;11.00;;;5.97;;
76566;SDS011;65428;53.194;6.132;2022-12-05T13:10:42;8.38;;;4.90;;
76566;SDS011;65428;53.194;6.132;2022-12-05T13:13:13;8.20;;;4.77;;
76566;SDS011;65428;53.194;6.132;2022-12-05T13:15:48;8.75;;;4.60;;
76566;SDS011;65428;53.194;6.132;2022-12-05T13:18:16;7.97;;;4.80;;
76566;SDS011;65428;53.194;6.132;2022-12-05T13:20:45;8.68;;;4.47;;
76566;SDS011;65428;53.194;6.132;2022-12-05T13:23:15;8.95;;;4.90;;
76566;SDS011;65428;53.194;6.132;2022-12-05T13:25:52;7.75;;;4.68;;
76566;SDS011;65428;53.194;6.132;2022-12-05T13:28:30;8.27;;;4.35;;
76566;SDS011;65428;53.194;6.132;2022-12-05T13:31:08;7.10;;;4.18;;
76566;SDS011;65428;53.194;6.132;2022-12-05T13:33:47;7.20;;;3.72;;
76566;SDS011;65428;53.194;6.132;2022-12-05T13:36:15;8.23;;;4.40;;
76566;SDS011;65428;53.194;6.132;2022-12-05T13:39:20;6.15;;;3.50;;
76566;SDS011;65428;53.194;6.132;2022-12-05T13:42:05;7.13;;;3.53;;
76566;SDS011;65428;53.194;6.132;2022-12-05T13:44:57;7.15;;;3.95;;
76566;SDS011;65428;53.194;6.132;2022-12-05T13:58:47;6.95;;;4.38;;
76566;SDS011;65428;53.194;6.132;2022-12-05T14:12:13;8.55;;;5.13;;
76566;SDS011;65428;53.194;6.132;2022-12-05T14:17:25;9.32;;;4.55;;
76566;SDS011;65428;53.194;6.132;2022-12-05T14:28:14;13.48;;;7.70;;
76566;SDS011;65428;53.194;6.132;2022-12-05T14:34:03;11.18;;;6.85;;
76566;SDS011;65428;53.194;6.132;2022-12-05T14:36:30;11.13;;;6.33;;
76566;SDS011;65428;53.194;6.132;2022-12-05T14:38:57;11.97;;;7.07;;
76566;SDS011;65428;53.194;6.132;2022-12-05T14:41:31;10.07;;;6.40;;
76566;SDS011;65428;53.194;6.132;2022-12-05T14:43:59;10.18;;;5.90;;
76566;SDS011;65428;53.194;6.132;2022-12-05T14:46:28;10.93;;;5.35;;
76566;SDS011;65428;53.194;6.132;2022-12-05T14:48:56;10.98;;;6.03;;
76566;SDS011;65428;53.194;6.132;2022-12-05T14:53:55;12.10;;;6.72;;
76566;SDS011;65428;53.194;6.132;2022-12-05T14:56:27;13.63;;;7.83;;
76566;SDS011;65428;53.194;6.132;2022-12-05T14:58:58;14.30;;;9.80;;
76566;SDS011;65428;53.194;6.132;2022-12-05T15:01:33;11.55;;;8.52;;
76566;SDS011;65428;53.194;6.132;2022-12-05T15:07:16;12.80;;;7.07;;
76566;SDS011;65428;53.194;6.132;2022-12-05T15:15:46;9.70;;;5.75;;
76566;SDS011;65428;53.194;6.132;2022-12-05T15:26:55;11.27;;;6.75;;
76566;SDS011;65428;53.194;6.132;2022-12-05T15:34:35;9.32;;;5.85;;
76566;SDS011;65428;53.194;6.132;2022-12-05T15:42:42;11.05;;;6.63;;
76566;SDS011;65428;53.194;6.132;2022-12-05T15:50:13;10.80;;;6.07;;
76566;SDS011;65428;53.194;6.132;2022-12-05T15:53:06;9.82;;;6.20;;
76566;SDS011;65428;53.194;6.132;2022-12-05T15:56:02;10.57;;;7.32;;
76566;SDS011;65428;53.194;6.132;2022-12-05T15:58:38;9.18;;;5.80;;
76566;SDS011;65428;53.194;6.132;2022-12-05T16:01:10;11.73;;;6.90;;
76566;SDS011;65428;53.194;6.132;2022-12-05T16:06:53;11.05;;;7.80;;
76566;SDS011;65428;53.194;6.132;2022-12-05T16:09:21;11.18;;;7.20;;
76566;SDS011;65428;53.194;6.132;2022-12-05T16:12:33;12.40;;;6.97;;
76566;SDS011;65428;53.194;6.132;2022-12-05T16:14:44;12.83;;;7.47;;
76566;SDS011;65428;53.194;6.132;2022-12-05T16:17:15;12.07;;;7.32;;
76566;SDS011;65428;53.194;6.132;2022-12-05T16:19:43;12.98;;;7.25;;
76566;SDS011;65428;53.194;6.132;2022-12-05T16:24:45;16.05;;;7.60;;
76566;SDS011;65428;53.194;6.132;2022-12-05T16:27:28;14.20;;;7.20;;
76566;SDS011;65428;53.194;6.132;2022-12-05T16:32:45;18.48;;;7.90;;
76566;SDS011;65428;53.194;6.132;2022-12-05T16:38:07;18.13;;;8.20;;
76566;SDS011;65428;53.194;6.132;2022-12-05T16:40:36;23.95;;;8.95;;
76566;SDS011;65428;53.194;6.132;2022-12-05T16:43:04;20.35;;;8.60;;
76566;SDS011;65428;53.194;6.132;2022-12-05T16:45:41;23.85;;;8.00;;
76566;SDS011;65428;53.194;6.132;2022-12-05T16:48:18;20.50;;;8.83;;
76566;SDS011;65428;53.194;6.132;2022-12-05T16:50:53;18.70;;;7.70;;
76566;SDS011;65428;53.194;6.132;2022-12-05T16:53:49;16.08;;;7.20;;
76566;SDS011;65428;53.194;6.132;2022-12-05T16:56:24;15.70;;;7.60;;
76566;SDS011;65428;53.194;6.132;2022-12-05T16:58:54;15.53;;;7.73;;
76566;SDS011;65428;53.194;6.132;2022-12-05T17:01:24;17.55;;;7.32;;
76566;SDS011;65428;53.194;6.132;2022-12-05T17:03:51;16.65;;;7.13;;
76566;SDS011;65428;53.194;6.132;2022-12-05T17:06:18;15.30;;;6.80;;
76566;SDS011;65428;53.194;6.132;2022-12-05T17:08:45;16.83;;;7.30;;
76566;SDS011;65428;53.194;6.132;2022-12-05T17:11:17;21.77;;;7.40;;
76566;SDS011;65428;53.194;6.132;2022-12-05T17:13:45;14.43;;;6.30;;
76566;SDS011;65428;53.194;6.132;2022-12-05T17:16:15;14.50;;;6.88;;
76566;SDS011;65428;53.194;6.132;2022-12-05T17:18:43;12.77;;;6.78;;
76566;SDS011;65428;53.194;6.132;2022-12-05T17:21:10;13.43;;;6.70;;
76566;SDS011;65428;53.194;6.132;2022-12-05T17:23:39;15.13;;;6.83;;
76566;SDS011;65428;53.194;6.132;2022-12-05T17:26:07;15.50;;;6.85;;
76566;SDS011;65428;53.194;6.132;2022-12-05T17:28:36;15.20;;;7.22;;
76566;SDS011;65428;53.194;6.132;2022-12-05T17:31:02;14.90;;;6.70;;
76566;SDS011;65428;53.194;6.132;2022-12-05T17:33:28;15.77;;;7.10;;
76566;SDS011;65428;53.194;6.132;2022-12-05T17:35:54;13.97;;;6.90;;
76566;SDS011;65428;53.194;6.132;2022-12-05T17:38:20;14.47;;;6.00;;
76566;SDS011;65428;53.194;6.132;2022-12-05T17:40:46;15.23;;;6.63;;
76566;SDS011;65428;53.194;6.132;2022-12-05T17:43:12;12.98;;;6.57;;
76566;SDS011;65428;53.194;6.132;2022-12-05T17:45:39;12.43;;;6.63;;
76566;SDS011;65428;53.194;6.132;2022-12-05T17:48:11;13.85;;;6.65;;
76566;SDS011;65428;53.194;6.132;2022-12-05T17:50:38;15.07;;;6.47;;
76566;SDS011;65428;53.194;6.132;2022-12-05T17:53:13;12.35;;;5.82;;
76566;SDS011;65428;53.194;6.132;2022-12-05T17:55:41;17.83;;;6.88;;
76566;SDS011;65428;53.194;6.132;2022-12-05T17:58:07;16.80;;;6.30;;
76566;SDS011;65428;53.194;6.132;2022-12-05T18:00:33;12.05;;;5.85;;
76566;SDS011;65428;53.194;6.132;2022-12-05T18:02:59;14.70;;;6.65;;
76566;SDS011;65428;53.194;6.132;2022-12-05T18:05:25;16.67;;;6.82;;
76566;SDS011;65428;53.194;6.132;2022-12-05T18:07:51;17.43;;;7.10;;
76566;SDS011;65428;53.194;6.132;2022-12-05T18:10:18;18.70;;;6.73;;
76566;SDS011;65428;53.194;6.132;2022-12-05T18:12:45;14.88;;;6.63;;
76566;SDS011;65428;53.194;6.132;2022-12-05T18:15:12;15.23;;;6.55;;